Terminal Aerodrome Forecast
Issued by NWS

Current Version | Previous Version | Text Only | Print | Product List | Glossary On
Versions: 1 2 3 4 5 6 7 8 9 10 11 12 13 14 15 16 17 18 19 20 21 22 23 24
000
FTUS44 KLZK 282000 AAC
TAFBPK
TAF AMD
KBPK 282028Z 2820/0118 11007KT 4SM -SN BR SCT015 OVC025
      TEMPO 2820/2823 2SM -SNPL OVC015
     FM282300 11005KT 3SM -FZRAPL BR SCT007 OVC012
     FM010700 VRB03KT 4SM BR OVC005
     FM011400 34004KT 5SM BR OVC007=

USA.gov is the U.S. government's official web portal to all federal, state and local government web resources and services.